Seattle Express — A8GU5 — position and weather

sailwx.info

Track history (hours):
 
Tides and Currents Weather Stations Pressure Air Temp Water Temp Dewpoint Dewpoint Depression Visibility Wind Speed Wind Dir Waves Ship Positions

Seattle Express

Last reported at 2015-Mar-02 12:00 UTC. Time now 2015-Mar-03 12:45 UTC.
Position N 30°24' W 075°18'.

Length 264.1 m; beam 32.3 m; draft 12.5 m.

Type: Ship (hazmat cat A). MMSI: 636090860.

Wind from 190 at 8 knots

Barometer 1026.0 mb
Air temperature 21.0 ° C
Visibility: greater than 5.4 NM
Dewpoint 16.9 ° C

Date/timePositionNaut miles runAvg speedWind from/ knotsBaromVisibWave heightAir tempDewpointWater temp
2015-Mar-02 12:00N 30°24' W 075°18'15412.9 190 / 81026.0 5.4 21.016.9
2015-Mar-02 00:00N 32°54' W 074°36'114 9.5 150 / 181030.0 5.4 20.013.0
2015-Mar-01 12:00N 34°48' W 074°36'13211.0 110 / 151036.0 5.4 12.0 5.6
2015-Mar-01 00:00N 37°00' W 074°36'9512.8 020 / 151041.5 5.4 2.5-11.7
2015-Feb-28 16:33N 38°35' W 074°51'10 9.7
2015-Feb-28 15:33N 38°43' W 074°58'9 9.4
2015-Feb-28 14:33N 38°50' W 075°05'1818.3
2015-Feb-28 13:33N 39°07' W 075°13'1716.5
2015-Feb-28 12:33N 39°21' W 075°26'1414.1
2015-Feb-28 11:33N 39°34' W 075°33'1111.1
2015-Feb-28 10:33N 39°45' W 075°30'1010.0
2015-Feb-28 09:33N 39°51' W 075°20'9 9.0
2015-Feb-28 08:33N 39°53' W 075°08'1 0.8
2015-Feb-28 07:33N 39°54' W 075°08'0 0.0
2015-Feb-28 06:32N 39°54' W 075°08'0 0.0
2015-Feb-28 05:32N 39°54' W 075°08'0 0.0
2015-Feb-28 04:32N 39°54' W 075°08'0 0.0
2015-Feb-28 03:32N 39°54' W 075°08'0 0.0
2015-Feb-28 02:32N 39°54' W 075°08'0 0.0
2015-Feb-28 01:32N 39°54' W 075°08'0 0.0
2015-Feb-28 00:32N 39°54' W 075°08'0 0.0
2015-Feb-27 23:32N 39°54' W 075°08'0 0.0
2015-Feb-27 22:33N 39°54' W 075°08'7 6.7
2015-Feb-27 21:33N 39°51' W 075°16'1212.0
2015-Feb-27 20:33N 39°45' W 075°29'1312.6
2015-Feb-27 19:34N 39°33' W 075°33'1514.9
2015-Feb-27 18:34N 39°19' W 075°24'1716.7
2015-Feb-27 17:34N 39°06' W 075°12'1514.8
2015-Feb-27 16:33N 38°52' W 075°04'7 6.8
2015-Feb-27 15:33N 38°47' W 074°59'7 7.1
2015-Feb-27 14:33N 38°41' W 074°53'16 4.0
2015-Feb-27 10:28N 38°36' W 074°33'6510.6
2015-Feb-27 04:21N 39°08' W 073°22'5811.3
2015-Feb-26 23:11N 39°26' W 072°10'711.1
2015-Feb-26 22:33N 39°28' W 072°01'183 7.9
2015-Feb-25 23:25N 42°23' W 070°49'6 0.4
2015-Feb-25 10:06N 42°21' W 070°56'5 9.4
2015-Feb-25 09:33N 42°23' W 070°50'45513.6
2015-Feb-24 00:00N 40°36' W 061°00'40917.0 320 / 211009.0 2.2 10.0 7.9
2015-Feb-23 00:00N 41°54' W 052°06'21017.5 210 / 221034.510.8 12.0 5.6
2015-Feb-22 12:00N 42°42' W 047°30'39516.5 330 / 231040.910.8 4.0-0.0
2015-Feb-21 12:00N 44°18' W 038°42'20216.8 220 / 281027.5 5.4 16.013.3
2015-Feb-21 00:00N 45°06' W 034°06'20317.0 250 / 231033.0 5.4 15.013.2
2015-Feb-20 12:00N 45°54' W 029°24'   270 / 261029.5 2.2 14.513.6
Track history (hours):
 
Tides and Currents Weather Stations Pressure Air Temp Water Temp Dewpoint Dewpoint Depression Visibility Wind Speed Wind Dir Waves Ship Positions

Seattle Express

Last reported at 2015-Mar-02 12:00 UTC. Time now 2015-Mar-03 12:45 UTC.
Position N 30°24' W 075°18'.

Length 264.1 m; beam 32.3 m; draft 12.5 m.

Type: Ship (hazmat cat A). MMSI: 636090860.

Wind from 190 at 8 knots

Barometer 1026.0 mb
Air temperature 21.0 ° C
Visibility: greater than 5.4 NM
Dewpoint 16.9 ° C

Date/timePositionNaut miles runAvg speedWind from/ knotsBaromVisibWave heightAir tempDewpointWater temp
2015-Mar-02 12:00N 30°24' W 075°18'15412.9 190 / 81026.0 5.4 21.016.9
2015-Mar-02 00:00N 32°54' W 074°36'114 9.5 150 / 181030.0 5.4 20.013.0
2015-Mar-01 12:00N 34°48' W 074°36'13211.0 110 / 151036.0 5.4 12.0 5.6
2015-Mar-01 00:00N 37°00' W 074°36'9512.8 020 / 151041.5 5.4 2.5-11.7
2015-Feb-28 16:33N 38°35' W 074°51'10 9.7
2015-Feb-28 15:33N 38°43' W 074°58'9 9.4
2015-Feb-28 14:33N 38°50' W 075°05'1818.3
2015-Feb-28 13:33N 39°07' W 075°13'1716.5
2015-Feb-28 12:33N 39°21' W 075°26'1414.1
2015-Feb-28 11:33N 39°34' W 075°33'1111.1
2015-Feb-28 10:33N 39°45' W 075°30'1010.0
2015-Feb-28 09:33N 39°51' W 075°20'9 9.0
2015-Feb-28 08:33N 39°53' W 075°08'1 0.8
2015-Feb-28 07:33N 39°54' W 075°08'0 0.0
2015-Feb-28 06:32N 39°54' W 075°08'0 0.0
2015-Feb-28 05:32N 39°54' W 075°08'0 0.0
2015-Feb-28 04:32N 39°54' W 075°08'0 0.0
2015-Feb-28 03:32N 39°54' W 075°08'0 0.0
2015-Feb-28 02:32N 39°54' W 075°08'0 0.0
2015-Feb-28 01:32N 39°54' W 075°08'0 0.0
2015-Feb-28 00:32N 39°54' W 075°08'0 0.0
2015-Feb-27 23:32N 39°54' W 075°08'0 0.0
2015-Feb-27 22:33N 39°54' W 075°08'7 6.7
2015-Feb-27 21:33N 39°51' W 075°16'1212.0
2015-Feb-27 20:33N 39°45' W 075°29'1312.6
2015-Feb-27 19:34N 39°33' W 075°33'1514.9
2015-Feb-27 18:34N 39°19' W 075°24'1716.7
2015-Feb-27 17:34N 39°06' W 075°12'1514.8
2015-Feb-27 16:33N 38°52' W 075°04'7 6.8
2015-Feb-27 15:33N 38°47' W 074°59'7 7.1
2015-Feb-27 14:33N 38°41' W 074°53'16 4.0
2015-Feb-27 10:28N 38°36' W 074°33'6510.6
2015-Feb-27 04:21N 39°08' W 073°22'5811.3
2015-Feb-26 23:11N 39°26' W 072°10'711.1
2015-Feb-26 22:33N 39°28' W 072°01'183 7.9
2015-Feb-25 23:25N 42°23' W 070°49'6 0.4
2015-Feb-25 10:06N 42°21' W 070°56'5 9.4
2015-Feb-25 09:33N 42°23' W 070°50'45513.6
2015-Feb-24 00:00N 40°36' W 061°00'40917.0 320 / 211009.0 2.2 10.0 7.9
2015-Feb-23 00:00N 41°54' W 052°06'21017.5 210 / 221034.510.8 12.0 5.6
2015-Feb-22 12:00N 42°42' W 047°30'39516.5 330 / 231040.910.8 4.0-0.0
2015-Feb-21 12:00N 44°18' W 038°42'20216.8 220 / 281027.5 5.4 16.013.3
2015-Feb-21 00:00N 45°06' W 034°06'20317.0 250 / 231033.0 5.4 15.013.2
2015-Feb-20 12:00N 45°54' W 029°24'   270 / 261029.5 2.2 14.513.6

Dump ship's entire track history